Maybe — 2ASG3 — position and weather

sailwx.info

Track history (hours):
 
Tides and Currents Weather Stations Pressure Air Temp Water Temp Dewpoint Dewpoint Depression Visibility Wind Speed Wind Dir Waves Ship Positions

Maybe

Last reported at 2019-Apr-23 22:19 UTC. Time now 2019-Apr-25 11:48 UTC.
Position N 54°23' W 005°37'.

Length 28 m.

Type: Pleasure craft. MMSI: 235062552.

Date/timePositionNaut miles runAvg speedWind from/ knotsBaromVisibWave heightAir tempDewpointWater temp
2019-Apr-23 22:19N 54°23' W 005°37'0 0.0
2019-Apr-23 18:37N 54°23' W 005°37'11 1.4
2019-Apr-23 10:57N 54°28' W 005°20'2 4.9
2019-Apr-23 10:30N 54°30' W 005°22'3 6.1
2019-Apr-23 10:00N 54°33' W 005°20'4 8.4
2019-Apr-23 09:30N 54°37' W 005°20'4 7.1
2019-Apr-23 09:00N 54°40' W 005°22'2 4.7
2019-Apr-23 08:30N 54°42' W 005°24'3 5.6
2019-Apr-23 08:00N 54°43' W 005°29'3 5.9
2019-Apr-23 07:30N 54°42' W 005°34'2 4.5
2019-Apr-23 07:00N 54°41' W 005°38'1 1.8
2019-Apr-23 06:28N 54°40' W 005°39'0 0.0
2019-Apr-23 05:58N 54°40' W 005°39'0 0.0
2019-Apr-23 05:28N 54°40' W 005°39'0 0.0
2019-Apr-23 04:58N 54°40' W 005°39'0 0.0
2019-Apr-23 04:28N 54°40' W 005°39'0 0.0
2019-Apr-23 03:58N 54°40' W 005°39'0 0.0
2019-Apr-23 03:28N 54°40' W 005°39'0 0.0
2019-Apr-23 02:58N 54°40' W 005°39'0 0.0
2019-Apr-23 02:28N 54°40' W 005°39'0 0.0
2019-Apr-23 01:58N 54°40' W 005°39'0 0.0
2019-Apr-23 01:28N 54°40' W 005°39'0 0.0
2019-Apr-23 00:58N 54°40' W 005°39'0 0.0
2019-Apr-23 00:28N 54°40' W 005°39'0 0.0
2019-Apr-22 23:55N 54°40' W 005°39'0 0.0
2019-Apr-22 23:28N 54°40' W 005°39'0 0.0
2019-Apr-22 22:59N 54°40' W 005°39'0 0.0
2019-Apr-22 22:28N 54°40' W 005°39'0 0.0
2019-Apr-22 21:58N 54°40' W 005°39'0 0.1
2019-Apr-22 21:28N 54°40' W 005°39'0 0.0
2019-Apr-22 20:58N 54°40' W 005°39'0 0.0
2019-Apr-22 20:29N 54°40' W 005°39'0 0.0
2019-Apr-22 19:58N 54°40' W 005°39'0 0.0
2019-Apr-22 19:28N 54°40' W 005°39'0 0.0
2019-Apr-22 18:59N 54°40' W 005°39'0 0.0
2019-Apr-22 18:29N 54°40' W 005°39'1 2.1
2019-Apr-22 18:00N 54°41' W 005°40'2 4.8
2019-Apr-22 17:30N 54°41' W 005°45'3 5.4
2019-Apr-22 17:01N 54°40' W 005°49'3 5.7
2019-Apr-22 16:30N 54°38' W 005°52'3 4.7
2019-Apr-22 15:58N 54°36' W 005°55'0 0.0
2019-Apr-22 15:28N 54°36' W 005°55'0 0.0
2019-Apr-22 14:58N 54°36' W 005°55'0 0.0
2019-Apr-22 14:25N 54°36' W 005°55'0 0.0
2019-Apr-22 13:55N 54°36' W 005°55'0 0.0
2019-Apr-22 13:28N 54°36' W 005°55'0 0.0
2019-Apr-22 12:58N 54°36' W 005°55'0 0.0
2019-Apr-22 12:28N 54°36' W 005°55'0 0.0
2019-Apr-22 11:58N 54°36' W 005°55'0 0.0
2019-Apr-22 11:28N 54°36' W 005°55'0 0.0
2019-Apr-22 10:58N 54°36' W 005°55'0 0.0
2019-Apr-22 10:25N 54°36' W 005°55'0 0.0
2019-Apr-22 09:58N 54°36' W 005°55'0 0.0
2019-Apr-22 09:28N 54°36' W 005°55'0 0.0
2019-Apr-22 08:58N 54°36' W 005°55'0 0.0
2019-Apr-22 08:28N 54°36' W 005°55'0 0.0
2019-Apr-22 07:58N 54°36' W 005°55'0 0.0
2019-Apr-22 07:28N 54°36' W 005°55'0 0.0
2019-Apr-22 06:55N 54°36' W 005°55'0 0.0
2019-Apr-22 06:28N 54°36' W 005°55'0 0.0
2019-Apr-22 05:55N 54°36' W 005°55'0 0.0
2019-Apr-22 05:22N 54°36' W 005°55'0 0.0
2019-Apr-22 04:55N 54°36' W 005°55'0 0.0
2019-Apr-22 04:28N 54°36' W 005°55'0 0.0
2019-Apr-22 03:58N 54°36' W 005°55'0 0.0
2019-Apr-22 03:25N 54°36' W 005°55'0 0.0
2019-Apr-22 02:52N 54°36' W 005°55'0 0.0
2019-Apr-22 02:28N 54°36' W 005°55'0 0.0
2019-Apr-22 01:58N 54°36' W 005°55'0 0.0
2019-Apr-22 01:28N 54°36' W 005°55'0 0.0
2019-Apr-22 00:58N 54°36' W 005°55'0 0.0
2019-Apr-22 00:25N 54°36' W 005°55'0 0.0
2019-Apr-21 23:58N 54°36' W 005°55'0 0.0
2019-Apr-21 23:22N 54°36' W 005°55'0 0.0
2019-Apr-21 22:58N 54°36' W 005°55'0 0.0
2019-Apr-21 22:28N 54°36' W 005°55'0 0.0
2019-Apr-21 21:58N 54°36' W 005°55'0 0.0
2019-Apr-21 21:28N 54°36' W 005°55'0 0.0
2019-Apr-21 20:58N 54°36' W 005°55'0 0.0
2019-Apr-21 20:28N 54°36' W 005°55'0 0.0
2019-Apr-21 19:55N 54°36' W 005°55'0 0.0
2019-Apr-21 19:28N 54°36' W 005°55'0 0.0
2019-Apr-21 18:55N 54°36' W 005°55'0 0.0
2019-Apr-21 18:28N 54°36' W 005°55'0 0.0
2019-Apr-21 17:58N 54°36' W 005°55'0 0.0
2019-Apr-21 17:28N 54°36' W 005°55'0 0.0
2019-Apr-21 16:58N 54°36' W 005°55'0 0.0
2019-Apr-21 16:28N 54°36' W 005°55'0 0.0
2019-Apr-21 15:58N 54°36' W 005°55'0 0.0
2019-Apr-21 15:19N 54°36' W 005°55'0 0.0
2019-Apr-21 14:58N 54°36' W 005°55'0 0.0
2019-Apr-21 14:28N 54°36' W 005°55'0 0.0
2019-Apr-21 13:58N 54°36' W 005°55'0 0.0
2019-Apr-21 13:22N 54°36' W 005°55'0 0.0
2019-Apr-21 12:52N 54°36' W 005°55'0 0.0
2019-Apr-21 12:28N 54°36' W 005°55'0 0.0
2019-Apr-21 11:49N 54°36' W 005°55'0 0.0
2019-Apr-21 11:28N 54°36' W 005°55'0 0.0
2019-Apr-21 10:58N 54°36' W 005°55'0 0.0
2019-Apr-21 10:25N 54°36' W 005°55'0 0.0
2019-Apr-21 09:58N 54°36' W 005°55'0 0.0
2019-Apr-21 09:13N 54°36' W 005°55'0 0.0
2019-Apr-21 08:58N 54°36' W 005°55'0 0.0
2019-Apr-21 08:28N 54°36' W 005°55'0 0.0
2019-Apr-21 07:58N 54°36' W 005°55'0 0.0
2019-Apr-21 07:13N 54°36' W 005°55'0 0.0
2019-Apr-20 18:37N 54°36' W 005°55'0 0.0
2019-Apr-20 18:28N 54°36' W 005°55'0 0.0
2019-Apr-20 17:58N 54°36' W 005°55'0 0.0
2019-Apr-20 17:28N 54°36' W 005°55'0 0.0
2019-Apr-20 16:58N 54°36' W 005°55'0 0.0
2019-Apr-20 16:29N 54°36' W 005°55'0 0.0
2019-Apr-20 15:58N 54°36' W 005°55'0 0.0
2019-Apr-20 15:28N 54°36' W 005°55'0 0.0
2019-Apr-20 14:55N 54°36' W 005°55'0 0.0
2019-Apr-20 14:26N 54°36' W 005°55'0 0.0
2019-Apr-20 13:19N 54°36' W 005°55'0 0.0
2019-Apr-20 12:59N 54°36' W 005°55'0 0.0
2019-Apr-20 12:28N 54°36' W 005°55'0 0.0
2019-Apr-20 11:55N 54°36' W 005°55'0 0.0
2019-Apr-20 11:26N 54°36' W 005°55'0 0.0
2019-Apr-20 10:58N 54°36' W 005°55'0 0.0
2019-Apr-20 10:11N 54°36' W 005°55'0 0.0
2019-Apr-20 09:59N 54°36' W 005°55'0 0.0
2019-Apr-20 09:29N 54°36' W 005°55'0 0.0
2019-Apr-20 08:59N 54°36' W 005°55'0 0.0
2019-Apr-20 07:50N 54°36' W 005°55'0 0.0
2019-Apr-20 07:29N 54°36' W 005°55'0 0.0
2019-Apr-20 06:59N 54°36' W 005°55'0 0.0
2019-Apr-20 06:29N 54°36' W 005°55'0 0.0
2019-Apr-20 05:59N 54°36' W 005°55'0 0.0
2019-Apr-20 05:29N 54°36' W 005°55'0 0.0
2019-Apr-20 04:59N 54°36' W 005°55'0 0.0
2019-Apr-20 04:23N 54°36' W 005°55'0 0.0
2019-Apr-20 03:59N 54°36' W 005°55'0 0.0
2019-Apr-20 03:29N 54°36' W 005°55'0 0.0
2019-Apr-20 02:59N 54°36' W 005°55'0 0.0
2019-Apr-20 02:26N 54°36' W 005°55'0 0.0
2019-Apr-20 01:56N 54°36' W 005°55'0 0.0
2019-Apr-20 01:29N 54°36' W 005°55'0 0.0
2019-Apr-20 00:59N 54°36' W 005°55'0 0.0
2019-Apr-20 00:29N 54°36' W 005°55'0 0.0
2019-Apr-19 23:59N 54°36' W 005°55'0 0.0
2019-Apr-19 23:29N 54°36' W 005°55'0 0.0
2019-Apr-19 22:59N 54°36' W 005°55'0 0.0
2019-Apr-19 22:29N 54°36' W 005°55'0 0.0
2019-Apr-19 21:59N 54°36' W 005°55'0 0.0
2019-Apr-19 21:29N 54°36' W 005°55'0 0.0
2019-Apr-19 20:59N 54°36' W 005°55'0 0.0
2019-Apr-19 20:26N 54°36' W 005°55'0 0.0
2019-Apr-19 19:59N 54°36' W 005°55'0 0.0
2019-Apr-19 19:29N 54°36' W 005°55'0 0.0
2019-Apr-19 18:59N 54°36' W 005°55'1 2.6
2019-Apr-19 18:30N 54°37' W 005°54'3 5.4
2019-Apr-19 18:00N 54°40' W 005°51'2 4.5
2019-Apr-19 17:30N 54°41' W 005°48'3 5.3
2019-Apr-19 16:59N 54°41' W 005°43'2 5.0
2019-Apr-19 16:30N 54°41' W 005°39'1 1.4
2019-Apr-19 15:59N 54°41' W 005°37'0 0.3
2019-Apr-19 15:30N 54°41' W 005°37'1 2.3
2019-Apr-19 14:53N 54°40' W 005°39'0 0.0
2019-Apr-19 14:29N 54°40' W 005°39'0 0.0
2019-Apr-19 13:59N 54°40' W 005°39'0 0.0
2019-Apr-19 13:29N 54°40' W 005°39'0 0.0
2019-Apr-19 12:59N 54°40' W 005°39'0 0.0
2019-Apr-19 12:29N 54°40' W 005°39'0 0.0
2019-Apr-19 11:59N 54°40' W 005°39'0 0.0
2019-Apr-19 11:29N 54°40' W 005°39'0 0.0
2019-Apr-19 10:59N 54°40' W 005°39'0 0.0
2019-Apr-19 10:29N 54°40' W 005°39'0 0.0
2019-Apr-19 09:59N 54°40' W 005°39'0 0.0
2019-Apr-19 09:29N 54°40' W 005°39'0 0.0
2019-Apr-19 08:58N 54°40' W 005°39'0 0.0
2019-Apr-19 08:25N 54°40' W 005°39'0 0.0
2019-Apr-19 07:58N 54°40' W 005°39'0 0.0
2019-Apr-19 07:28N 54°40' W 005°39'0 0.0
2019-Apr-19 06:58N 54°40' W 005°39'0 0.0
2019-Apr-19 06:28N 54°40' W 005°39'0 0.0
2019-Apr-19 05:58N 54°40' W 005°39'0 0.0
2019-Apr-19 05:28N 54°40' W 005°39'0 0.0
2019-Apr-19 04:58N 54°40' W 005°39'0 0.0
2019-Apr-19 04:28N 54°40' W 005°39'0 0.0
2019-Apr-19 03:59N 54°40' W 005°39'0 0.0
2019-Apr-19 03:28N 54°40' W 005°39'0 0.0
2019-Apr-19 02:55N 54°40' W 005°39'0 0.0
2019-Apr-19 02:28N 54°40' W 005°39'0 0.0
2019-Apr-19 01:58N 54°40' W 005°39'0 0.0
2019-Apr-19 01:28N 54°40' W 005°39'0 0.0
2019-Apr-19 00:58N 54°40' W 005°39'0 0.0
2019-Apr-19 00:28N 54°40' W 005°39'0 0.0
2019-Apr-18 23:58N 54°40' W 005°39'0 0.0
2019-Apr-18 23:28N 54°40' W 005°39'0 0.0
2019-Apr-18 22:58N 54°40' W 005°39'0 0.0
2019-Apr-18 22:25N 54°40' W 005°39'0 0.0
2019-Apr-18 21:58N 54°40' W 005°39'0 0.0
2019-Apr-18 21:29N 54°40' W 005°39'0 0.0
2019-Apr-18 20:59N 54°40' W 005°39'0 0.0
2019-Apr-18 20:28N 54°40' W 005°39'0 0.0
2019-Apr-18 19:58N 54°40' W 005°39'0 0.0
2019-Apr-18 19:26N 54°40' W 005°39'0 0.0
2019-Apr-18 18:59N 54°40' W 005°39'0 0.0
2019-Apr-18 18:28N 54°40' W 005°39'0 0.0
2019-Apr-18 17:55N 54°40' W 005°39'0 0.0
2019-Apr-18 17:26N 54°40' W 005°39'0 0.0
2019-Apr-18 16:58N 54°40' W 005°39'0 0.0
2019-Apr-18 16:29N 54°40' W 005°39'0 0.0
2019-Apr-18 15:59N 54°40' W 005°39'0 0.0
2019-Apr-18 15:28N 54°40' W 005°39'0 0.1
2019-Apr-18 14:58N 54°40' W 005°39'1 2.9
2019-Apr-18 14:29N 54°41' W 005°37'2 3.9
2019-Apr-18 14:01N 54°42' W 005°34'2 3.2
2019-Apr-18 13:30N 54°43' W 005°32'2 3.6
2019-Apr-18 13:00N 54°44' W 005°29'3 5.8
2019-Apr-18 12:30N 54°42' W 005°24'4 8.8
2019-Apr-18 12:00N 54°39' W 005°19'4 8.7
2019-Apr-18 11:30N 54°36' W 005°14'5 8.3
2019-Apr-18 10:52N 54°32' W 005°08'  
2019-Apr-16 05:59N 53°20' W 006°06'4 4.1
2019-Apr-16 05:04N 53°21' W 006°12'  
Track history (hours):
 
Tides and Currents Weather Stations Pressure Air Temp Water Temp Dewpoint Dewpoint Depression Visibility Wind Speed Wind Dir Waves Ship Positions

Maybe

Last reported at 2019-Apr-23 22:19 UTC. Time now 2019-Apr-25 11:48 UTC.
Position N 54°23' W 005°37'.

Length 28 m.

Type: Pleasure craft. MMSI: 235062552.

Date/timePositionNaut miles runAvg speedWind from/ knotsBaromVisibWave heightAir tempDewpointWater temp
2019-Apr-23 22:19N 54°23' W 005°37'0 0.0
2019-Apr-23 18:37N 54°23' W 005°37'11 1.4
2019-Apr-23 10:57N 54°28' W 005°20'2 4.9
2019-Apr-23 10:30N 54°30' W 005°22'3 6.1
2019-Apr-23 10:00N 54°33' W 005°20'4 8.4
2019-Apr-23 09:30N 54°37' W 005°20'4 7.1
2019-Apr-23 09:00N 54°40' W 005°22'2 4.7
2019-Apr-23 08:30N 54°42' W 005°24'3 5.6
2019-Apr-23 08:00N 54°43' W 005°29'3 5.9
2019-Apr-23 07:30N 54°42' W 005°34'2 4.5
2019-Apr-23 07:00N 54°41' W 005°38'1 1.8
2019-Apr-23 06:28N 54°40' W 005°39'0 0.0
2019-Apr-23 05:58N 54°40' W 005°39'0 0.0
2019-Apr-23 05:28N 54°40' W 005°39'0 0.0
2019-Apr-23 04:58N 54°40' W 005°39'0 0.0
2019-Apr-23 04:28N 54°40' W 005°39'0 0.0
2019-Apr-23 03:58N 54°40' W 005°39'0 0.0
2019-Apr-23 03:28N 54°40' W 005°39'0 0.0
2019-Apr-23 02:58N 54°40' W 005°39'0 0.0
2019-Apr-23 02:28N 54°40' W 005°39'0 0.0
2019-Apr-23 01:58N 54°40' W 005°39'0 0.0
2019-Apr-23 01:28N 54°40' W 005°39'0 0.0
2019-Apr-23 00:58N 54°40' W 005°39'0 0.0
2019-Apr-23 00:28N 54°40' W 005°39'0 0.0
2019-Apr-22 23:55N 54°40' W 005°39'0 0.0
2019-Apr-22 23:28N 54°40' W 005°39'0 0.0
2019-Apr-22 22:59N 54°40' W 005°39'0 0.0
2019-Apr-22 22:28N 54°40' W 005°39'0 0.0
2019-Apr-22 21:58N 54°40' W 005°39'0 0.1
2019-Apr-22 21:28N 54°40' W 005°39'0 0.0
2019-Apr-22 20:58N 54°40' W 005°39'0 0.0
2019-Apr-22 20:29N 54°40' W 005°39'0 0.0
2019-Apr-22 19:58N 54°40' W 005°39'0 0.0
2019-Apr-22 19:28N 54°40' W 005°39'0 0.0
2019-Apr-22 18:59N 54°40' W 005°39'0 0.0
2019-Apr-22 18:29N 54°40' W 005°39'1 2.1
2019-Apr-22 18:00N 54°41' W 005°40'2 4.8
2019-Apr-22 17:30N 54°41' W 005°45'3 5.4
2019-Apr-22 17:01N 54°40' W 005°49'3 5.7
2019-Apr-22 16:30N 54°38' W 005°52'3 4.7
2019-Apr-22 15:58N 54°36' W 005°55'0 0.0
2019-Apr-22 15:28N 54°36' W 005°55'0 0.0
2019-Apr-22 14:58N 54°36' W 005°55'0 0.0
2019-Apr-22 14:25N 54°36' W 005°55'0 0.0
2019-Apr-22 13:55N 54°36' W 005°55'0 0.0
2019-Apr-22 13:28N 54°36' W 005°55'0 0.0
2019-Apr-22 12:58N 54°36' W 005°55'0 0.0
2019-Apr-22 12:28N 54°36' W 005°55'0 0.0
2019-Apr-22 11:58N 54°36' W 005°55'0 0.0
2019-Apr-22 11:28N 54°36' W 005°55'0 0.0
2019-Apr-22 10:58N 54°36' W 005°55'0 0.0
2019-Apr-22 10:25N 54°36' W 005°55'0 0.0
2019-Apr-22 09:58N 54°36' W 005°55'0 0.0
2019-Apr-22 09:28N 54°36' W 005°55'0 0.0
2019-Apr-22 08:58N 54°36' W 005°55'0 0.0
2019-Apr-22 08:28N 54°36' W 005°55'0 0.0
2019-Apr-22 07:58N 54°36' W 005°55'0 0.0
2019-Apr-22 07:28N 54°36' W 005°55'0 0.0
2019-Apr-22 06:55N 54°36' W 005°55'0 0.0
2019-Apr-22 06:28N 54°36' W 005°55'0 0.0
2019-Apr-22 05:55N 54°36' W 005°55'0 0.0
2019-Apr-22 05:22N 54°36' W 005°55'0 0.0
2019-Apr-22 04:55N 54°36' W 005°55'0 0.0
2019-Apr-22 04:28N 54°36' W 005°55'0 0.0
2019-Apr-22 03:58N 54°36' W 005°55'0 0.0
2019-Apr-22 03:25N 54°36' W 005°55'0 0.0
2019-Apr-22 02:52N 54°36' W 005°55'0 0.0
2019-Apr-22 02:28N 54°36' W 005°55'0 0.0
2019-Apr-22 01:58N 54°36' W 005°55'0 0.0
2019-Apr-22 01:28N 54°36' W 005°55'0 0.0
2019-Apr-22 00:58N 54°36' W 005°55'0 0.0
2019-Apr-22 00:25N 54°36' W 005°55'0 0.0
2019-Apr-21 23:58N 54°36' W 005°55'0 0.0
2019-Apr-21 23:22N 54°36' W 005°55'0 0.0
2019-Apr-21 22:58N 54°36' W 005°55'0 0.0
2019-Apr-21 22:28N 54°36' W 005°55'0 0.0
2019-Apr-21 21:58N 54°36' W 005°55'0 0.0
2019-Apr-21 21:28N 54°36' W 005°55'0 0.0
2019-Apr-21 20:58N 54°36' W 005°55'0 0.0
2019-Apr-21 20:28N 54°36' W 005°55'0 0.0
2019-Apr-21 19:55N 54°36' W 005°55'0 0.0
2019-Apr-21 19:28N 54°36' W 005°55'0 0.0
2019-Apr-21 18:55N 54°36' W 005°55'0 0.0
2019-Apr-21 18:28N 54°36' W 005°55'0 0.0
2019-Apr-21 17:58N 54°36' W 005°55'0 0.0
2019-Apr-21 17:28N 54°36' W 005°55'0 0.0
2019-Apr-21 16:58N 54°36' W 005°55'0 0.0
2019-Apr-21 16:28N 54°36' W 005°55'0 0.0
2019-Apr-21 15:58N 54°36' W 005°55'0 0.0
2019-Apr-21 15:19N 54°36' W 005°55'0 0.0
2019-Apr-21 14:58N 54°36' W 005°55'0 0.0
2019-Apr-21 14:28N 54°36' W 005°55'0 0.0
2019-Apr-21 13:58N 54°36' W 005°55'0 0.0
2019-Apr-21 13:22N 54°36' W 005°55'0 0.0
2019-Apr-21 12:52N 54°36' W 005°55'0 0.0
2019-Apr-21 12:28N 54°36' W 005°55'0 0.0
2019-Apr-21 11:49N 54°36' W 005°55'0 0.0
2019-Apr-21 11:28N 54°36' W 005°55'0 0.0
2019-Apr-21 10:58N 54°36' W 005°55'0 0.0
2019-Apr-21 10:25N 54°36' W 005°55'0 0.0
2019-Apr-21 09:58N 54°36' W 005°55'0 0.0
2019-Apr-21 09:13N 54°36' W 005°55'0 0.0
2019-Apr-21 08:58N 54°36' W 005°55'0 0.0
2019-Apr-21 08:28N 54°36' W 005°55'0 0.0
2019-Apr-21 07:58N 54°36' W 005°55'0 0.0
2019-Apr-21 07:13N 54°36' W 005°55'0 0.0
2019-Apr-20 18:37N 54°36' W 005°55'0 0.0
2019-Apr-20 18:28N 54°36' W 005°55'0 0.0
2019-Apr-20 17:58N 54°36' W 005°55'0 0.0
2019-Apr-20 17:28N 54°36' W 005°55'0 0.0
2019-Apr-20 16:58N 54°36' W 005°55'0 0.0
2019-Apr-20 16:29N 54°36' W 005°55'0 0.0
2019-Apr-20 15:58N 54°36' W 005°55'0 0.0
2019-Apr-20 15:28N 54°36' W 005°55'0 0.0
2019-Apr-20 14:55N 54°36' W 005°55'0 0.0
2019-Apr-20 14:26N 54°36' W 005°55'0 0.0
2019-Apr-20 13:19N 54°36' W 005°55'0 0.0
2019-Apr-20 12:59N 54°36' W 005°55'0 0.0
2019-Apr-20 12:28N 54°36' W 005°55'0 0.0
2019-Apr-20 11:55N 54°36' W 005°55'0 0.0
2019-Apr-20 11:26N 54°36' W 005°55'0 0.0
2019-Apr-20 10:58N 54°36' W 005°55'0 0.0
2019-Apr-20 10:11N 54°36' W 005°55'0 0.0
2019-Apr-20 09:59N 54°36' W 005°55'0 0.0
2019-Apr-20 09:29N 54°36' W 005°55'0 0.0
2019-Apr-20 08:59N 54°36' W 005°55'0 0.0
2019-Apr-20 07:50N 54°36' W 005°55'0 0.0
2019-Apr-20 07:29N 54°36' W 005°55'0 0.0
2019-Apr-20 06:59N 54°36' W 005°55'0 0.0
2019-Apr-20 06:29N 54°36' W 005°55'0 0.0
2019-Apr-20 05:59N 54°36' W 005°55'0 0.0
2019-Apr-20 05:29N 54°36' W 005°55'0 0.0
2019-Apr-20 04:59N 54°36' W 005°55'0 0.0
2019-Apr-20 04:23N 54°36' W 005°55'0 0.0
2019-Apr-20 03:59N 54°36' W 005°55'0 0.0
2019-Apr-20 03:29N 54°36' W 005°55'0 0.0
2019-Apr-20 02:59N 54°36' W 005°55'0 0.0
2019-Apr-20 02:26N 54°36' W 005°55'0 0.0
2019-Apr-20 01:56N 54°36' W 005°55'0 0.0
2019-Apr-20 01:29N 54°36' W 005°55'0 0.0
2019-Apr-20 00:59N 54°36' W 005°55'0 0.0
2019-Apr-20 00:29N 54°36' W 005°55'0 0.0
2019-Apr-19 23:59N 54°36' W 005°55'0 0.0
2019-Apr-19 23:29N 54°36' W 005°55'0 0.0
2019-Apr-19 22:59N 54°36' W 005°55'0 0.0
2019-Apr-19 22:29N 54°36' W 005°55'0 0.0
2019-Apr-19 21:59N 54°36' W 005°55'0 0.0
2019-Apr-19 21:29N 54°36' W 005°55'0 0.0
2019-Apr-19 20:59N 54°36' W 005°55'0 0.0
2019-Apr-19 20:26N 54°36' W 005°55'0 0.0
2019-Apr-19 19:59N 54°36' W 005°55'0 0.0
2019-Apr-19 19:29N 54°36' W 005°55'0 0.0
2019-Apr-19 18:59N 54°36' W 005°55'1 2.6
2019-Apr-19 18:30N 54°37' W 005°54'3 5.4
2019-Apr-19 18:00N 54°40' W 005°51'2 4.5
2019-Apr-19 17:30N 54°41' W 005°48'3 5.3
2019-Apr-19 16:59N 54°41' W 005°43'2 5.0
2019-Apr-19 16:30N 54°41' W 005°39'1 1.4
2019-Apr-19 15:59N 54°41' W 005°37'0 0.3
2019-Apr-19 15:30N 54°41' W 005°37'1 2.3
2019-Apr-19 14:53N 54°40' W 005°39'0 0.0
2019-Apr-19 14:29N 54°40' W 005°39'0 0.0
2019-Apr-19 13:59N 54°40' W 005°39'0 0.0
2019-Apr-19 13:29N 54°40' W 005°39'0 0.0
2019-Apr-19 12:59N 54°40' W 005°39'0 0.0
2019-Apr-19 12:29N 54°40' W 005°39'0 0.0
2019-Apr-19 11:59N 54°40' W 005°39'0 0.0
2019-Apr-19 11:29N 54°40' W 005°39'0 0.0
2019-Apr-19 10:59N 54°40' W 005°39'0 0.0
2019-Apr-19 10:29N 54°40' W 005°39'0 0.0
2019-Apr-19 09:59N 54°40' W 005°39'0 0.0
2019-Apr-19 09:29N 54°40' W 005°39'0 0.0
2019-Apr-19 08:58N 54°40' W 005°39'0 0.0
2019-Apr-19 08:25N 54°40' W 005°39'0 0.0
2019-Apr-19 07:58N 54°40' W 005°39'0 0.0
2019-Apr-19 07:28N 54°40' W 005°39'0 0.0
2019-Apr-19 06:58N 54°40' W 005°39'0 0.0
2019-Apr-19 06:28N 54°40' W 005°39'0 0.0
2019-Apr-19 05:58N 54°40' W 005°39'0 0.0
2019-Apr-19 05:28N 54°40' W 005°39'0 0.0
2019-Apr-19 04:58N 54°40' W 005°39'0 0.0
2019-Apr-19 04:28N 54°40' W 005°39'0 0.0
2019-Apr-19 03:59N 54°40' W 005°39'0 0.0
2019-Apr-19 03:28N 54°40' W 005°39'0 0.0
2019-Apr-19 02:55N 54°40' W 005°39'0 0.0
2019-Apr-19 02:28N 54°40' W 005°39'0 0.0
2019-Apr-19 01:58N 54°40' W 005°39'0 0.0
2019-Apr-19 01:28N 54°40' W 005°39'0 0.0
2019-Apr-19 00:58N 54°40' W 005°39'0 0.0
2019-Apr-19 00:28N 54°40' W 005°39'0 0.0
2019-Apr-18 23:58N 54°40' W 005°39'0 0.0
2019-Apr-18 23:28N 54°40' W 005°39'0 0.0
2019-Apr-18 22:58N 54°40' W 005°39'0 0.0
2019-Apr-18 22:25N 54°40' W 005°39'0 0.0
2019-Apr-18 21:58N 54°40' W 005°39'0 0.0
2019-Apr-18 21:29N 54°40' W 005°39'0 0.0
2019-Apr-18 20:59N 54°40' W 005°39'0 0.0
2019-Apr-18 20:28N 54°40' W 005°39'0 0.0
2019-Apr-18 19:58N 54°40' W 005°39'0 0.0
2019-Apr-18 19:26N 54°40' W 005°39'0 0.0
2019-Apr-18 18:59N 54°40' W 005°39'0 0.0
2019-Apr-18 18:28N 54°40' W 005°39'0 0.0
2019-Apr-18 17:55N 54°40' W 005°39'0 0.0
2019-Apr-18 17:26N 54°40' W 005°39'0 0.0
2019-Apr-18 16:58N 54°40' W 005°39'0 0.0
2019-Apr-18 16:29N 54°40' W 005°39'0 0.0
2019-Apr-18 15:59N 54°40' W 005°39'0 0.0
2019-Apr-18 15:28N 54°40' W 005°39'0 0.1
2019-Apr-18 14:58N 54°40' W 005°39'1 2.9
2019-Apr-18 14:29N 54°41' W 005°37'2 3.9
2019-Apr-18 14:01N 54°42' W 005°34'2 3.2
2019-Apr-18 13:30N 54°43' W 005°32'2 3.6
2019-Apr-18 13:00N 54°44' W 005°29'3 5.8
2019-Apr-18 12:30N 54°42' W 005°24'4 8.8
2019-Apr-18 12:00N 54°39' W 005°19'4 8.7
2019-Apr-18 11:30N 54°36' W 005°14'5 8.3
2019-Apr-18 10:52N 54°32' W 005°08'  
2019-Apr-16 05:59N 53°20' W 006°06'4 4.1
2019-Apr-16 05:04N 53°21' W 006°12'  

Dump ship's entire track history